»·PEaware :: AAL1484 KAUS-KORD

AAL1484 :: KAUS-KORD

FLIGHT INFORMATION

Flight Status: Arrived
Operator:
American Airlines
More flights by this operator :: More flights under this callsign
Pilot: Andrew J. (13363)
Aircraft: BOEING 737-800
(B738)
More flights by this aircraft type
Origin: KAUS Austin Bergstrom Intl
United States
Destination: KORD Chicago-O'Hare Intl
United States
More flights between these airports :: More routes between these airports
Route: ELOEL1 KLNGR FUZ MLC SGF J105 WELTS TRTLL4
File this flight plan on PilotEdge
Remarks:
Altitude:
(Current/Filed)
37,000ft
Speed:
(Current/Filed)
460kts
Departed: 11-Jan-17 07:25 PM
Arrived: 11-Jan-17 09:26 PM
Distance/Time
Traveled:
849nm/2:01
Distance/Time
To Go:
Arrived

Flight Plot

Page will automatically refresh every two minutes.

Flight plan parsing failed; only flown route is shown


Map Options




Map Legend


Flown Route
Filed Route
Departure Airport
Arrival Airport
Navaid (VOR, NDB)
Fix

Horizontal Profiles

Position Reports

Time Latitude Longitude Heading Altitude Ground
Speed
11-Jan-17 19:24 30.297841 -97.747959 346 8922ft 304kts
11-Jan-17 19:25 30.383011 -97.768891 344 11700ft 340kts
11-Jan-17 19:26 30.478537 -97.792921 344 14819ft 358kts
11-Jan-17 19:27 30.577592 -97.817941 343 17907ft 371kts
11-Jan-17 19:28 30.680205 -97.843955 343 20600ft 385kts
11-Jan-17 19:29 30.785796 -97.874907 337 22998ft 396kts
11-Jan-17 19:30 30.892406 -97.915695 338 25112ft 410kts
11-Jan-17 19:31 31.002975 -97.956651 337 26918ft 425kts
11-Jan-17 19:32 31.117116 -97.999132 337 28627ft 437kts
11-Jan-17 19:33 31.237762 -98.024909 5 30089ft 466kts
11-Jan-17 19:34 31.361759 -97.969799 20 31492ft 481kts
11-Jan-17 19:35 31.483862 -97.906930 18 33155ft 479kts
11-Jan-17 19:36 31.605296 -97.844922 18 34639ft 477kts
11-Jan-17 19:37 31.727074 -97.782717 18 36047ft 475kts
11-Jan-17 19:38 31.848239 -97.720641 18 36971ft 478kts
11-Jan-17 19:39 31.969457 -97.658341 18 36968ft 473kts
11-Jan-17 19:40 32.090134 -97.596127 18 36960ft 475kts
11-Jan-17 19:41 32.210997 -97.533645 18 36964ft 475kts
11-Jan-17 19:42 32.331905 -97.470949 18 36969ft 476kts
11-Jan-17 19:43 32.452942 -97.408009 17 36964ft 476kts
11-Jan-17 19:44 32.574108 -97.344806 17 36950ft 476kts
11-Jan-17 19:45 32.695413 -97.281462 17 36939ft 477kts
11-Jan-17 19:46 32.817091 -97.217532 17 36919ft 479kts
11-Jan-17 19:47 32.937259 -97.148374 24 36910ft 484kts
11-Jan-17 19:48 33.053228 -97.066142 24 36905ft 486kts
11-Jan-17 19:49 33.169525 -96.984265 24 36913ft 486kts
11-Jan-17 19:50 33.286197 -96.902625 24 36923ft 487kts
11-Jan-17 19:51 33.402951 -96.820657 24 36917ft 487kts
11-Jan-17 19:52 33.520151 -96.738080 24 36924ft 488kts
11-Jan-17 19:53 33.637074 -96.655422 24 36920ft 489kts
11-Jan-17 19:54 33.754083 -96.572444 24 36919ft 489kts
11-Jan-17 19:55 33.871267 -96.489075 24 36912ft 490kts
11-Jan-17 19:56 33.988603 -96.405321 24 36909ft 491kts
11-Jan-17 19:57 34.106167 -96.321124 24 36905ft 493kts
11-Jan-17 19:58 34.223771 -96.236637 24 36900ft 492kts
11-Jan-17 19:59 34.341298 -96.151921 24 36899ft 492kts
11-Jan-17 20:00 34.458901 -96.066864 24 36899ft 493kts
11-Jan-17 20:01 34.576573 -95.981497 24 36892ft 493kts
11-Jan-17 20:02 34.694047 -95.896103 24 36880ft 493kts
11-Jan-17 20:03 34.811706 -95.810014 24 36871ft 495kts
11-Jan-17 20:04 34.925161 -95.713387 32 36869ft 502kts
11-Jan-17 20:05 35.034986 -95.608333 31 36865ft 503kts
11-Jan-17 20:06 35.145672 -95.503240 31 36857ft 505kts
11-Jan-17 20:07 35.256669 -95.398209 31 36850ft 505kts
11-Jan-17 20:08 35.367651 -95.292692 31 36859ft 505kts
11-Jan-17 20:09 35.478441 -95.186960 31 36855ft 506kts
11-Jan-17 20:10 35.589283 -95.080782 31 36857ft 506kts
11-Jan-17 20:11 35.699972 -94.974346 31 36860ft 506kts
11-Jan-17 20:12 35.810645 -94.867564 31 36860ft 506kts
11-Jan-17 20:13 35.921116 -94.760569 31 36861ft 506kts
11-Jan-17 20:14 36.032053 -94.652718 31 36854ft 508kts
11-Jan-17 20:15 36.143387 -94.544115 31 36851ft 509kts
11-Jan-17 20:16 36.254247 -94.435564 31 36849ft 508kts
11-Jan-17 20:17 36.364990 -94.326711 31 36846ft 508kts
11-Jan-17 20:18 36.475683 -94.217500 31 36854ft 509kts
11-Jan-17 20:19 36.586574 -94.107689 31 36858ft 512kts
11-Jan-17 20:20 36.697784 -93.997125 31 36901ft 517kts
11-Jan-17 20:21 36.810219 -93.884934 31 38004ft 518kts
11-Jan-17 20:22 36.922616 -93.772325 31 38821ft 521kts
11-Jan-17 20:23 37.035051 -93.659256 31 38834ft 519kts
11-Jan-17 20:24 37.147567 -93.545885 31 38832ft 520kts
11-Jan-17 20:25 37.260101 -93.431736 31 38828ft 522kts
11-Jan-17 20:26 37.373082 -93.317080 29 38831ft 521kts
11-Jan-17 20:27 37.489741 -93.210197 28 38837ft 518kts
11-Jan-17 20:28 37.605957 -93.102821 28 38846ft 519kts
11-Jan-17 20:29 37.722347 -92.995056 28 38858ft 519kts
11-Jan-17 20:30 37.838521 -92.887052 28 38857ft 519kts
11-Jan-17 20:31 37.954483 -92.778341 28 38860ft 519kts
11-Jan-17 20:32 38.070578 -92.669067 28 38861ft 522kts
11-Jan-17 20:33 38.186793 -92.559223 28 38860ft 521kts
11-Jan-17 20:34 38.302912 -92.448961 28 38862ft 521kts
11-Jan-17 20:35 38.419106 -92.338955 28 38857ft 521kts
11-Jan-17 20:36 38.535062 -92.228144 28 38859ft 521kts
11-Jan-17 20:37 38.650780 -92.116970 28 38860ft 521kts
11-Jan-17 20:38 38.766550 -92.005479 27 38860ft 522kts
11-Jan-17 20:39 38.882760 -91.893177 28 38861ft 521kts
11-Jan-17 20:40 38.997761 -91.779316 32 38863ft 528kts
11-Jan-17 20:41 39.096291 -91.635209 45 38871ft 541kts
11-Jan-17 20:42 39.191014 -91.484929 44 38877ft 541kts
11-Jan-17 20:43 39.286485 -91.335214 44 38881ft 541kts
11-Jan-17 20:44 39.382014 -91.185157 44 38884ft 542kts
11-Jan-17 20:45 39.477211 -91.034257 44 38882ft 542kts
11-Jan-17 20:46 39.572140 -90.882916 44 38884ft 542kts
11-Jan-17 20:47 39.666862 -90.731047 44 38889ft 542kts
11-Jan-17 20:48 39.761555 -90.578543 44 38882ft 544kts
11-Jan-17 20:49 39.856763 -90.425641 45 38874ft 545kts
11-Jan-17 20:50 39.951820 -90.272252 41 38873ft 543kts
11-Jan-17 20:51 40.062133 -90.142624 31 38867ft 533kts
11-Jan-17 20:52 40.174742 -90.017029 31 38356ft 532kts
11-Jan-17 20:53 40.287684 -89.889106 31 35453ft 540kts
11-Jan-17 20:54 40.401583 -89.759500 31 32602ft 540kts
11-Jan-17 20:55 40.513489 -89.631753 31 30121ft 526kts
11-Jan-17 20:56 40.622493 -89.506941 33 27704ft 513kts
11-Jan-17 20:57 40.725672 -89.387824 33 25415ft 480kts
11-Jan-17 20:58 40.821799 -89.273706 35 24074ft 454kts
11-Jan-17 20:59 40.914141 -89.163062 35 22356ft 442kts
11-Jan-17 21:00 41.004039 -89.055572 35 20688ft 430kts
11-Jan-17 21:01 41.090974 -88.951127 36 18617ft 415kts
11-Jan-17 21:02 41.174546 -88.849901 36 16332ft 398kts
11-Jan-17 21:03 41.254668 -88.752894 36 14134ft 382kts
11-Jan-17 21:04 41.331453 -88.659389 37 11962ft 368kts
11-Jan-17 21:05 41.405101 -88.570849 36 10948ft 343kts
11-Jan-17 21:06 41.476412 -88.486279 37 10024ft 329kts
11-Jan-17 21:07 41.542995 -88.406732 37 9630ft 322kts
11-Jan-17 21:08 41.609858 -88.326670 37 9129ft 322kts
11-Jan-17 21:09 41.676464 -88.247658 37 8617ft 317kts
11-Jan-17 21:10 41.741765 -88.169662 38 8109ft 312kts
11-Jan-17 21:11 41.805928 -88.092737 39 7616ft 308kts
11-Jan-17 21:12 41.866388 -88.012715 42 7131ft 303kts
11-Jan-17 21:13 41.885880 -87.907212 95 6643ft 296kts
11-Jan-17 21:14 41.884343 -87.797432 92 6167ft 293kts
11-Jan-17 21:15 41.884354 -87.689027 92 5700ft 287kts
11-Jan-17 21:16 41.884043 -87.583032 92 5244ft 281kts
11-Jan-17 21:17 41.883976 -87.479390 86 4788ft 274kts
11-Jan-17 21:18 41.934726 -87.450699 319 4761ft 218kts
11-Jan-17 21:19 41.967696 -87.508531 275 4610ft 189kts
11-Jan-17 21:20 41.969431 -87.577172 270 4330ft 177kts
11-Jan-17 21:21 41.969472 -87.642457 271 3971ft 160kts
11-Jan-17 21:22 41.969398 -87.700488 273 3301ft 154kts
11-Jan-17 21:23 41.969319 -87.758907 275 2472ft 155kts
11-Jan-17 21:24 41.969239 -87.816169 275 1662ft 151kts
11-Jan-17 21:25 41.969238 -87.871989 274 861ft 148kts
11-Jan-17 21:26 41.969113 -87.910443 267 676ft 29kts
11-Jan-17 21:27 41.970526 -87.912558 90 676ft 8kts
11-Jan-17 21:28 41.970525 -87.910134 90 676ft 12kts
11-Jan-17 21:29 41.970554 -87.905180 90 676ft 10kts
11-Jan-17 21:30 41.970521 -87.902165 91 676ft 13kts
11-Jan-17 21:31 41.972089 -87.901275 321 676ft 10kts
11-Jan-17 21:32 41.973597 -87.901605 67 676ft 7kts
11-Jan-17 21:33 41.973639 -87.900971 88 676ft 0kts
11-Jan-17 21:34 41.973639 -87.900971 88 676ft 0kts
11-Jan-17 21:35 41.973639 -87.900971 88 676ft 0kts
11-Jan-17 21:36 41.973639 -87.900971 88 676ft 0kts
11-Jan-17 21:37 41.973639 -87.900971 88 676ft 0kts
11-Jan-17 21:38 41.973639 -87.900971 88 676ft 0kts

Navigation Log

Ident Type
Flight plan parsing failed, navigation log unavailable